Time;durP1;ratioP1;P1;durP2;ratioP2;P2;SDS_P1;SDS_P2;PMS_P1;PMS_P2;Temp;Humidity;BMP_temperature;BMP_pressure;BME280_temperature;BME280_humidity;BME280_pressure;Samples;Min_cycle;Max_cycle;Signal;HPM_P1;HPM_P2
2023/04/29 00:03:13;;;;;;;36.30;20.20;;;;;;;7.97;49.32;98401.83;435315;1256;96921;-41
2023/04/29 00:13:17;;;;;;;34.70;19.30;;;;;;;7.69;49.86;98398.04;435346;1256;107699;-41
2023/04/29 00:23:21;;;;;;;36.80;18.40;;;;;;;7.60;50.39;98397.12;435296;1256;97749;-41
2023/04/29 00:33:24;;;;;;;35.10;17.20;;;;;;;7.43;50.70;98391.86;435335;1254;109467;-41
2023/04/29 00:43:28;;;;;;;30.80;18.00;;;;;;;7.36;51.16;98381.54;435488;1256;98292;-41
2023/04/29 00:53:33;;;;;;;35.20;16.70;;;;;;;7.24;51.40;98373.73;435440;1251;97924;-41
2023/04/29 01:03:41;;;;;;;25.40;13.80;;;;;;;7.25;51.74;98370.36;435481;1256;97848;-41
2023/04/29 01:13:48;;;;;;;23.10;14.40;;;;;;;7.27;51.67;98369.58;436352;1253;109648;-42
2023/04/29 01:23:54;;;;;;;29.20;14.20;;;;;;;7.28;51.79;98372.29;435392;1250;107112;-42
2023/04/29 01:44:08;;;;;;;24.10;15.50;;;;;;;7.46;52.41;98363.75;435390;1253;97480;-42
2023/04/29 01:54:12;;;;;;;25.00;12.40;;;;;;;7.62;52.49;98354.15;435336;1253;97362;-42
2023/04/29 02:04:16;;;;;;;35.00;16.50;;;;;;;7.71;52.58;98342.30;435371;1253;109108;-41
2023/04/29 02:14:20;;;;;;;32.60;17.40;;;;;;;7.84;52.63;98340.85;435433;1253;98259;-41
2023/04/29 02:24:25;;;;;;;26.10;14.90;;;;;;;7.93;52.75;98335.56;435395;1259;98285;-41
2023/04/29 02:34:30;;;;;;;28.90;15.40;;;;;;;7.97;53.03;98324.31;435532;1251;107788;-41
2023/04/29 02:44:33;;;;;;;25.40;14.50;;;;;;;8.02;53.19;98317.02;435352;1253;97462;-41
2023/04/29 02:54:37;;;;;;;27.80;14.70;;;;;;;8.05;53.15;98316.42;435333;1254;97992;-42
2023/04/29 03:04:45;;;;;;;22.70;14.40;;;;;;;8.00;53.33;98307.71;435524;1252;109425;-41
2023/04/29 03:14:50;;;;;;;25.60;14.40;;;;;;;7.97;53.71;98302.58;435299;1263;96648;-41
2023/04/29 03:24:54;;;;;;;29.00;15.30;;;;;;;7.98;53.98;98299.27;435338;1253;97960;-40
2023/04/29 03:34:57;;;;;;;25.90;15.00;;;;;;;7.99;54.13;98294.77;435406;1253;109541;-40
2023/04/29 03:45:01;;;;;;;33.10;16.30;;;;;;;7.94;54.37;98290.06;435046;1263;413606;-41
2023/04/29 03:55:05;;;;;;;36.30;16.80;;;;;;;7.96;54.65;98284.00;435427;1253;97858;-41
2023/04/29 04:05:09;;;;;;;29.50;16.80;;;;;;;8.04;54.82;98283.54;435625;1251;107770;-41
2023/04/29 04:15:13;;;;;;;27.00;15.70;;;;;;;8.16;54.97;98290.60;435411;1263;97861;-41
2023/04/29 04:25:17;;;;;;;29.10;15.10;;;;;;;8.27;55.26;98289.96;435422;1263;97492;-41
2023/04/29 04:35:21;;;;;;;27.80;16.50;;;;;;;8.35;55.66;98285.24;435319;1253;107027;-40
2023/04/29 04:45:24;;;;;;;33.30;17.10;;;;;;;8.35;56.07;98282.05;435166;1263;98514;-41
2023/04/29 04:55:28;;;;;;;34.40;18.70;;;;;;;8.38;56.34;98284.44;435459;1253;97123;-41
2023/04/29 05:05:33;;;;;;;33.40;18.60;;;;;;;8.46;56.74;98285.36;435299;1255;108684;-41
2023/04/29 05:15:37;;;;;;;37.10;19.30;;;;;;;8.59;57.01;98278.86;435369;1254;96623;-41
2023/04/29 05:25:41;;;;;;;40.10;20.50;;;;;;;8.79;57.31;98283.96;435477;1251;97887;-41
2023/04/29 05:35:44;;;;;;;38.60;20.00;;;;;;;9.01;57.65;98279.80;435374;1253;107365;-43
2023/04/29 05:45:48;;;;;;;34.90;20.40;;;;;;;9.33;57.87;98278.05;435418;1254;97883;-41
2023/04/29 05:55:52;;;;;;;36.20;18.70;;;;;;;9.61;58.18;98290.81;435420;1253;96621;-41
2023/04/29 06:05:57;;;;;;;40.20;23.40;;;;;;;9.74;58.28;98294.79;435239;1253;108324;-42
2023/04/29 06:16:01;;;;;;;33.70;19.20;;;;;;;9.71;58.63;98291.60;435523;1252;97865;-41
2023/04/29 06:26:09;;;;;;;30.50;17.90;;;;;;;9.80;58.94;98288.83;435286;1251;108853;-42
2023/04/29 06:36:12;;;;;;;35.70;17.90;;;;;;;9.98;59.54;98281.64;435328;1254;97848;-41
2023/04/29 06:46:16;;;;;;;32.10;18.40;;;;;;;10.21;59.82;98285.58;435305;1254;110574;-42
2023/04/29 07:06:23;;;;;;;32.30;19.80;;;;;;;10.73;61.03;98281.92;435449;1251;97762;-40
2023/04/29 07:16:27;;;;;;;33.60;16.40;;;;;;;11.61;61.61;98271.26;435409;1250;110055;-41
2023/04/29 07:26:31;;;;;;;25.10;16.20;;;;;;;11.94;61.35;98269.74;435259;1251;108556;-46
2023/04/29 07:36:49;;;;;;;17.80;13.20;;;;;;;11.80;62.05;98272.09;435421;1254;98103;-42
2023/04/29 07:46:58;;;;;;;24.60;15.00;;;;;;;11.60;62.55;98273.25;435261;1254;108443;-41
2023/04/29 07:57:03;;;;;;;28.20;17.30;;;;;;;11.40;62.97;98275.41;435325;1250;97861;-41
2023/04/29 08:07:07;;;;;;;26.50;17.00;;;;;;;11.20;64.00;98283.17;435490;1251;109435;-43
2023/04/29 08:17:10;;;;;;;21.70;13.40;;;;;;;11.36;64.36;98279.33;435426;1252;108459;-41
2023/04/29 08:27:14;;;;;;;23.20;11.50;;;;;;;11.45;65.36;98282.58;435438;1251;97867;-42
2023/04/29 08:37:19;;;;;;;20.00;12.70;;;;;;;11.45;65.62;98284.00;435385;1249;108631;-41
2023/04/29 08:47:23;;;;;;;17.60;11.70;;;;;;;11.70;65.63;98282.23;435331;1254;97858;-42
2023/04/29 08:57:29;;;;;;;21.80;12.20;;;;;;;12.04;65.78;98274.52;435433;1253;110281;-41
2023/04/29 09:07:34;;;;;;;17.20;12.00;;;;;;;12.34;65.49;98275.07;435544;1250;107743;-42
2023/04/29 09:17:41;;;;;;;17.10;11.10;;;;;;;12.69;65.40;98267.44;435560;1251;97911;-42
2023/04/29 09:27:48;;;;;;;20.00;11.50;;;;;;;13.08;65.11;98266.60;435479;1251;109937;-42
2023/04/29 09:48:01;;;;;;;19.80;11.40;;;;;;;13.29;64.84;98269.22;435547;1253;97874;-42
2023/04/29 09:58:08;;;;;;;19.70;13.10;;;;;;;13.67;64.88;98267.88;435544;1253;108717;-42
2023/04/29 10:08:15;;;;;;;18.90;12.10;;;;;;;14.37;63.77;98266.47;435355;1251;108326;-42
2023/04/29 10:28:39;;;;;;;19.80;13.50;;;;;;;15.52;61.89;98253.63;435455;1251;109541;-41
2023/04/29 10:48:56;;;;;;;19.20;12.40;;;;;;;16.70;59.04;98245.14;435623;1250;97861;-41
2023/04/29 10:59:00;;;;;;;20.40;11.40;;;;;;;15.97;58.37;98247.95;437500;1250;107167;-41
2023/04/29 11:09:14;;;;;;;13.20;10.50;;;;;;;15.94;59.05;98242.00;437400;1248;96613;-42
2023/04/29 11:19:18;;;;;;;18.00;11.50;;;;;;;16.03;58.83;98238.66;437410;1247;110114;-42
2023/04/29 11:29:22;;;;;;;16.80;12.30;;;;;;;16.00;58.90;98233.40;437254;1248;96637;-41
2023/04/29 11:39:27;;;;;;;23.20;14.20;;;;;;;15.86;59.11;98237.03;437398;1251;97070;-41
2023/04/29 11:59:33;;;;;;;17.40;12.10;;;;;;;15.38;59.40;98240.88;437327;1247;97967;-41
2023/04/29 12:19:48;;;;;;;11.90;9.90;;;;;;;16.00;59.00;98242.56;437569;1246;110259;-42
2023/04/29 12:29:52;;;;;;;12.30;9.50;;;;;;;16.01;58.95;98247.36;437457;1250;108298;-42
2023/04/29 12:39:56;;;;;;;16.60;11.20;;;;;;;16.17;58.66;98245.05;437389;1247;96622;-44
2023/04/29 12:50:01;;;;;;;18.80;10.30;;;;;;;16.40;58.56;98235.53;437291;1250;109738;-45
2023/04/29 13:00:08;;;;;;;13.90;10.10;;;;;;;16.47;58.45;98232.11;437444;1247;109679;-40
2023/04/29 13:20:16;;;;;;;15.50;9.10;;;;;;;16.30;58.83;98228.54;437577;1247;109926;-42
2023/04/29 13:30:20;;;;;;;11.00;8.40;;;;;;;16.23;58.99;98225.38;437432;1248;97432;-43
2023/04/29 13:40:24;;;;;;;12.10;8.70;;;;;;;16.21;59.00;98229.45;437509;1247;97905;-42
2023/04/29 13:50:35;;;;;;;12.60;9.80;;;;;;;16.47;59.14;98229.13;437502;1247;108639;-43
2023/04/29 14:00:58;;;;;;;12.60;8.60;;;;;;;16.70;59.04;98232.82;437429;1248;107552;-41
2023/04/29 14:11:09;;;;;;;12.60;8.50;;;;;;;16.80;58.93;98233.52;437342;1247;97955;-41
2023/04/29 14:21:13;;;;;;;12.10;9.80;;;;;;;16.61;59.03;98229.89;437471;1247;108552;-41
2023/04/29 14:31:17;;;;;;;10.60;7.40;;;;;;;16.29;59.26;98224.39;437477;1247;108362;-42
2023/04/29 14:41:21;;;;;;;9.90;6.70;;;;;;;16.34;59.40;98225.10;437573;1248;98177;-42
2023/04/29 14:51:26;;;;;;;7.70;6.40;;;;;;;16.49;59.33;98211.60;437544;1250;96639;-42
2023/04/29 15:01:30;;;;;;;8.40;5.60;;;;;;;16.54;59.22;98208.58;437413;1247;108251;-41
2023/04/29 15:11:35;;;;;;;5.40;3.80;;;;;;;16.68;59.11;98204.96;437276;1250;97880;-42
2023/04/29 15:33:41;;;;;;;10.00;4.20;;;;;;;16.13;58.68;98216.95;437295;1251;108935;-43
2023/04/29 15:43:45;;;;;;;5.30;4.30;;;;;;;15.91;58.86;98222.55;437089;1247;275460;-41
2023/04/29 16:03:52;;;;;;;4.70;3.50;;;;;;;15.61;58.97;98228.95;437501;1250;107117;-42
2023/04/29 16:13:56;;;;;;;7.00;4.20;;;;;;;15.41;59.21;98225.87;437468;1250;96586;-42
2023/04/29 16:24:00;;;;;;;9.90;3.80;;;;;;;15.49;59.36;98222.91;437382;1250;97874;-42
2023/04/29 16:34:04;;;;;;;8.10;3.10;;;;;;;15.42;59.34;98222.35;437501;1248;109409;-43
2023/04/29 16:44:08;;;;;;;5.50;4.00;;;;;;;15.30;59.21;98219.69;437444;1251;97851;-43
2023/04/29 16:54:15;;;;;;;4.40;3.50;;;;;;;15.08;59.27;98221.34;436426;1253;97456;-42
2023/04/29 17:04:19;;;;;;;9.40;6.10;;;;;;;14.84;59.53;98225.60;436291;1247;108022;-43
2023/04/29 17:14:22;;;;;;;13.40;7.80;;;;;;;14.57;59.55;98245.73;436858;1253;96625;-47
2023/04/29 17:24:26;;;;;;;16.00;11.10;;;;;;;14.27;59.81;98251.33;436445;1247;97510;-42
2023/04/29 17:34:29;;;;;;;22.60;11.80;;;;;;;14.06;60.26;98256.27;436103;1253;107241;-42
2023/04/29 17:44:35;;;;;;;19.80;11.70;;;;;;;13.97;61.12;98261.40;436285;1248;97905;-42
2023/04/29 17:54:39;;;;;;;16.40;11.50;;;;;;;13.91;62.03;98267.20;436428;1253;107564;-41
2023/04/29 18:04:46;;;;;;;23.10;14.50;;;;;;;13.82;62.79;98276.15;436473;1247;97839;-42
2023/04/29 18:14:50;;;;;;;31.10;22.40;;;;;;;13.51;63.69;98281.68;436219;1248;110380;-41
2023/04/29 18:24:54;;;;;;;21.20;16.00;;;;;;;13.34;64.12;98291.19;436158;1253;97955;-42
2023/04/29 18:45:07;;;;;;;23.50;17.10;;;;;;;13.13;65.36;98317.98;436157;1253;109722;-41
2023/04/29 18:55:12;;;;;;;35.90;30.80;;;;;;;13.06;65.79;98323.17;436486;1247;107212;-43
2023/04/29 19:05:20;;;;;;;33.50;23.90;;;;;;;12.93;66.38;98327.95;436425;1253;97979;-42
2023/04/29 19:25:27;;;;;;;20.20;15.20;;;;;;;12.82;67.02;98341.70;437201;1252;107632;-41
2023/04/29 19:35:34;;;;;;;17.10;11.00;;;;;;;12.67;67.41;98345.69;437058;1248;96655;-42
2023/04/29 19:45:38;;;;;;;12.80;9.90;;;;;;;12.50;68.70;98351.08;436611;1253;107600;-43
2023/04/29 19:55:41;;;;;;;9.70;7.70;;;;;;;12.45;69.70;98360.66;436288;1253;97345;-42
2023/04/29 20:05:45;;;;;;;9.30;7.70;;;;;;;12.37;70.53;98371.71;436734;1253;110394;-41
2023/04/29 20:16:03;;;;;;;9.30;7.50;;;;;;;12.18;71.05;98376.79;436481;1254;107814;-42
2023/04/29 20:26:11;;;;;;;10.10;7.80;;;;;;;12.13;71.51;98377.63;436972;1252;97932;-42
2023/04/29 20:36:14;;;;;;;13.60;8.90;;;;;;;12.11;71.73;98379.45;436174;1253;107426;-42
2023/04/29 20:46:18;;;;;;;11.20;8.30;;;;;;;12.06;72.26;98377.85;436269;1253;97890;-41
2023/04/29 20:56:23;;;;;;;12.20;9.70;;;;;;;12.06;72.69;98379.27;436292;1263;110064;-43
2023/04/29 21:06:26;;;;;;;14.00;9.70;;;;;;;12.05;72.87;98388.36;436394;1252;110486;-42
2023/04/29 21:16:30;;;;;;;14.20;10.10;;;;;;;12.02;73.38;98395.80;436329;1247;97851;-42
2023/04/29 21:26:34;;;;;;;16.40;11.30;;;;;;;12.02;73.69;98399.94;436305;1253;107801;-41
2023/04/29 21:36:38;;;;;;;18.10;13.00;;;;;;;11.97;74.04;98399.23;436166;1253;97900;-41
2023/04/29 21:46:45;;;;;;;15.30;12.30;;;;;;;11.91;74.47;98400.48;436592;1252;110715;-43
2023/04/29 21:56:49;;;;;;;16.90;12.90;;;;;;;11.87;74.73;98410.45;436264;1253;107576;-41
2023/04/29 22:06:53;;;;;;;17.00;11.80;;;;;;;11.81;75.23;98413.79;436398;1248;97902;-42
2023/04/29 22:16:56;;;;;;;13.70;10.60;;;;;;;11.80;75.55;98413.40;436337;1253;108386;-41
2023/04/29 22:27:02;;;;;;;13.80;10.30;;;;;;;11.78;76.01;98410.34;436339;1252;98361;-41
2023/04/29 22:37:05;;;;;;;12.10;9.80;;;;;;;11.75;76.28;98410.48;436162;1254;110688;-42
2023/04/29 22:47:09;;;;;;;16.20;10.90;;;;;;;11.74;76.50;98414.45;435990;1253;108606;-42
2023/04/29 22:57:13;;;;;;;13.60;10.70;;;;;;;11.69;76.78;98426.09;436415;1253;97555;-42
2023/04/29 23:07:17;;;;;;;10.30;8.90;;;;;;;11.65;77.18;98427.41;436431;1253;108657;-43
2023/04/29 23:17:24;;;;;;;9.60;8.00;;;;;;;11.58;77.44;98432.17;436193;1253;97421;-42
2023/04/29 23:27:28;;;;;;;7.50;6.70;;;;;;;11.41;78.30;98442.11;436355;1253;109669;-40
2023/04/29 23:37:31;;;;;;;13.40;8.80;;;;;;;11.20;79.02;98453.08;436320;1253;108796;-41
2023/04/29 23:47:35;;;;;;;13.80;9.50;;;;;;;10.99;79.91;98458.50;436361;1248;97892;-43
2023/04/29 23:57:38;;;;;;;10.20;8.10;;;;;;;10.83;80.43;98465.13;436387;1261;107697;-41
